Wetterdaten: Woche 26.09.16 - 02.10.16 (KW39)
Datum Zeit Temp. A. Feuchte A. Luftdruck Regen Wind Richtung Taupunkt Windchill Windben
26.09.2016 00:00 14,8 C 80 % 1020,6 hPa 0,0 l/m 2,1 km/h (1 Bft) NO 11,4 C 14,8 C 5,7 km/h (2 Bft)
26.09.2016 01:00 15,6 C 78 % 1020,5 hPa 0,0 l/m 0,2 km/h (0 Bft) O-NO 11,8 C 15,6 C 1,1 km/h (0 Bft)
26.09.2016 02:00 14,6 C 87 % 1020,5 hPa 1,8 l/m 0,7 km/h (0 Bft) O-SO 12,4 C 14,6 C 2,7 km/h (1 Bft)
26.09.2016 03:00 13,5 C 93 % 1020,3 hPa 0,0 l/m 0,2 km/h (0 Bft) O-SO 12,5 C 13,5 C 1,7 km/h (1 Bft)
26.09.2016 04:00 13,1 C 95 % 1020,3 hPa 0,0 l/m 0,1 km/h (0 Bft) S-SW 12,3 C 13,1 C 1,1 km/h (0 Bft)
26.09.2016 05:00 12,8 C 96 % 1020,4 hPa 0,0 l/m 0,3 km/h (0 Bft) S-SO 12,2 C 12,8 C 1,1 km/h (1 Bft)
26.09.2016 06:00 12,6 C 96 % 1020,4 hPa 0,0 l/m 0,2 km/h (0 Bft) S-SO 12,0 C 12,6 C 1,1 km/h (1 Bft)
26.09.2016 07:00 12,4 C 96 % 1020,4 hPa 0,0 l/m 0,1 km/h (0 Bft) S-SO 11,8 C 12,4 C 0,5 km/h (0 Bft)
26.09.2016 08:00 12,6 C 97 % 1020,6 hPa 0,0 l/m 0,1 km/h (0 Bft) S-SO 12,2 C 12,6 C 0,5 km/h (0 Bft)
26.09.2016 09:00 13,5 C 97 % 1020,5 hPa 0,0 l/m 0,1 km/h (0 Bft) N 13,0 C 13,5 C 1,2 km/h (1 Bft)
26.09.2016 10:00 14,7 C 92 % 1020,7 hPa 0,0 l/m 0,5 km/h (0 Bft) S-SO 13,4 C 14,7 C 2,3 km/h (1 Bft)
26.09.2016 11:00 15,7 C 87 % 1020,8 hPa 0,0 l/m 1,7 km/h (1 Bft) S 13,5 C 15,7 C 4,2 km/h (1 Bft)
26.09.2016 12:00 15,9 C 86 % 1020,7 hPa 0,0 l/m 2,1 km/h (1 Bft) W-NW 13,6 C 15,9 C 4,5 km/h (1 Bft)
26.09.2016 13:00 16,7 C 82 % 1020,3 hPa 0,0 l/m 2,5 km/h (1 Bft) W-NW 13,7 C 16,7 C 6,1 km/h (2 Bft)
26.09.2016 14:00 17,5 C 78 % 1020,0 hPa 0,0 l/m 3,0 km/h (1 Bft) NW 13,5 C 17,5 C 7,1 km/h (2 Bft)
26.09.2016 15:00 18,3 C 74 % 1019,8 hPa 0,0 l/m 3,2 km/h (1 Bft) NW 13,6 C 18,3 C 8,0 km/h (2 Bft)
26.09.2016 16:00 18,7 C 73 % 1019,6 hPa 0,3 l/m 3,6 km/h (1 Bft) W-NW 13,7 C 18,7 C 8,6 km/h (2 Bft)
26.09.2016 17:00 18,1 C 76 % 1019,7 hPa 0,0 l/m 2,5 km/h (1 Bft) W-NW 13,7 C 18,1 C 6,0 km/h (2 Bft)
26.09.2016 18:00 17,1 C 79 % 1019,9 hPa 0,0 l/m 1,4 km/h (1 Bft) W 13,4 C 17,1 C 3,4 km/h (1 Bft)
26.09.2016 19:00 14,9 C 87 % 1020,4 hPa 0,0 l/m 0,3 km/h (0 Bft) W 12,7 C 14,9 C 2,1 km/h (1 Bft)
26.09.2016 20:00 14,4 C 90 % 1021,2 hPa 2,8 l/m 1,4 km/h (1 Bft) NW 12,8 C 14,4 C 4,5 km/h (1 Bft)
26.09.2016 21:00 13,7 C 94 % 1021,5 hPa 0,8 l/m 1,2 km/h (1 Bft) SW 12,7 C 13,7 C 3,6 km/h (1 Bft)
26.09.2016 22:00 13,3 C 95 % 1021,9 hPa 1,0 l/m 0,7 km/h (0 Bft) SW 12,5 C 13,3 C 2,9 km/h (1 Bft)
26.09.2016 23:00 12,9 C 95 % 1021,4 hPa 0,5 l/m 0,4 km/h (0 Bft) N 12,1 C 12,9 C 2,2 km/h (1 Bft)
27.09.2016 00:00 12,6 C 96 % 1021,4 hPa 0,0 l/m 0,2 km/h (0 Bft) N 12,0 C 12,6 C 0,8 km/h (0 Bft)
27.09.2016 01:00 12,7 C 97 % 1021,4 hPa 0,0 l/m 0,3 km/h (0 Bft) N 12,2 C 12,7 C 1,5 km/h (1 Bft)
27.09.2016 02:00 12,9 C 97 % 1021,6 hPa 0,0 l/m 0,1 km/h (0 Bft) N 12,4 C 12,9 C 1,1 km/h (0 Bft)
27.09.2016 03:00 12,8 C 97 % 1021,7 hPa 0,0 l/m 0,3 km/h (0 Bft) N 12,4 C 12,8 C 1,3 km/h (1 Bft)
27.09.2016 04:00 12,7 C 97 % 1021,7 hPa 0,0 l/m 0,1 km/h (0 Bft) N 12,2 C 12,7 C 1,1 km/h (0 Bft)
27.09.2016 05:00 12,6 C 97 % 1022,0 hPa 0,0 l/m 0,3 km/h (0 Bft) N 12,2 C 12,6 C 1,4 km/h (1 Bft)
27.09.2016 06:00 12,7 C 97 % 1022,2 hPa 0,0 l/m 0,1 km/h (0 Bft) N 12,2 C 12,7 C 1,3 km/h (1 Bft)
27.09.2016 07:00 12,8 C 97 % 1022,9 hPa 0,3 l/m 0,2 km/h (0 Bft) N 12,3 C 12,8 C 1,6 km/h (1 Bft)
27.09.2016 08:00 12,5 C 97 % 1023,5 hPa 0,0 l/m 0,5 km/h (0 Bft) N 12,0 C 12,5 C 1,7 km/h (1 Bft)
27.09.2016 09:00 13,7 C 93 % 1024,2 hPa 0,0 l/m 1,5 km/h (1 Bft) SW 12,6 C 13,7 C 4,1 km/h (1 Bft)
27.09.2016 10:00 15,2 C 87 % 1024,7 hPa 0,0 l/m 1,8 km/h (1 Bft) W 13,0 C 15,2 C 4,5 km/h (1 Bft)
27.09.2016 11:00 15,6 C 84 % 1025,1 hPa 0,0 l/m 2,3 km/h (1 Bft) O-NO 12,8 C 15,6 C 5,1 km/h (1 Bft)
27.09.2016 12:00 16,8 C 79 % 1024,9 hPa 0,0 l/m 2,3 km/h (1 Bft) O-NO 13,0 C 16,8 C 4,5 km/h (1 Bft)
27.09.2016 13:00 18,5 C 67 % 1024,8 hPa 0,0 l/m 2,9 km/h (1 Bft) S-SW 12,2 C 18,5 C 7,2 km/h (2 Bft)
27.09.2016 14:00 19,8 C 59 % 1024,9 hPa 0,0 l/m 3,2 km/h (1 Bft) W-NW 11,4 C 19,8 C 8,2 km/h (2 Bft)
27.09.2016 15:00 20,0 C 58 % 1024,9 hPa 0,0 l/m 3,0 km/h (1 Bft) W-NW 11,4 C 20,0 C 7,6 km/h (2 Bft)
27.09.2016 16:00 20,7 C 53 % 1025,0 hPa 0,0 l/m 1,7 km/h (1 Bft) S 10,7 C 20,7 C 4,4 km/h (1 Bft)
27.09.2016 17:00 20,2 C 56 % 1025,2 hPa 0,3 l/m 1,8 km/h (1 Bft) W-NW 11,1 C 20,2 C 4,9 km/h (1 Bft)
27.09.2016 18:00 18,5 C 65 % 1025,5 hPa 0,0 l/m 1,4 km/h (1 Bft) NW 11,7 C 18,5 C 3,9 km/h (1 Bft)
27.09.2016 19:00 15,1 C 80 % 1026,2 hPa 0,0 l/m 0,0 km/h (0 Bft) S-SW 11,7 C 15,1 C 0,3 km/h (0 Bft)
27.09.2016 20:00 12,5 C 89 % 1026,7 hPa 0,0 l/m 0,0 km/h (0 Bft) S-SW 10,7 C 12,5 C 0,4 km/h (0 Bft)
27.09.2016 21:00 10,9 C 92 % 1027,2 hPa 0,0 l/m 0,0 km/h (0 Bft) S-SW 9,7 C 10,9 C 0,0 km/h (0 Bft)
27.09.2016 22:00 9,9 C 94 % 1027,5 hPa 0,0 l/m 0,0 km/h (0 Bft) S-SW 9,0 C 9,9 C 0,0 km/h (0 Bft)
27.09.2016 23:00 9,1 C 95 % 1027,7 hPa 0,0 l/m 0,0 km/h (0 Bft) S-SW 8,3 C 9,1 C 0,0 km/h (0 Bft)
28.09.2016 00:00 8,7 C 95 % 1027,9 hPa 0,0 l/m 0,0 km/h (0 Bft) S-SW 8,0 C 8,7 C 0,0 km/h (0 Bft)
28.09.2016 01:00 8,2 C 96 % 1028,0 hPa 0,0 l/m 0,0 km/h (0 Bft) S-SW 7,5 C 8,2 C 0,3 km/h (0 Bft)
28.09.2016 02:00 7,6 C 96 % 1028,1 hPa 0,0 l/m 0,0 km/h (0 Bft) S-SW 6,9 C 7,6 C 0,0 km/h (0 Bft)
28.09.2016 03:00 7,0 C 96 % 1027,8 hPa 0,0 l/m 0,0 km/h (0 Bft) S-SW 6,4 C 7,0 C 0,1 km/h (0 Bft)
28.09.2016 04:00 6,7 C 97 % 1028,0 hPa 0,0 l/m 0,0 km/h (0 Bft) S-SW 6,2 C 6,7 C 0,1 km/h (0 Bft)
28.09.2016 05:00 6,5 C 97 % 1028,1 hPa 0,0 l/m 0,0 km/h (0 Bft) S-SW 6,0 C 6,5 C 0,1 km/h (0 Bft)
28.09.2016 06:00 6,7 C 97 % 1028,2 hPa 0,0 l/m 0,0 km/h (0 Bft) S-SW 6,3 C 6,7 C 0,2 km/h (0 Bft)
28.09.2016 07:00 6,7 C 97 % 1028,8 hPa 0,0 l/m 0,0 km/h (0 Bft) S-SW 6,2 C 6,7 C 0,0 km/h (0 Bft)
28.09.2016 08:00 7,8 C 98 % 1029,2 hPa 0,0 l/m 0,1 km/h (0 Bft) S-SW 7,5 C 7,8 C 0,8 km/h (0 Bft)
28.09.2016 09:00 11,2 C 92 % 1029,2 hPa 0,0 l/m 0,6 km/h (0 Bft) S-SW 10,0 C 11,2 C 1,9 km/h (1 Bft)
28.09.2016 10:00 15,4 C 84 % 1029,4 hPa 0,0 l/m 3,6 km/h (1 Bft) NO 12,6 C 15,4 C 8,9 km/h (2 Bft)
28.09.2016 11:00 18,1 C 73 % 1029,2 hPa 0,0 l/m 5,7 km/h (2 Bft) NO 13,2 C 18,0 C 12,2 km/h (2 Bft)
28.09.2016 12:00 19,2 C 67 % 1029,1 hPa 0,0 l/m 5,8 km/h (2 Bft) O-NO 12,8 C 19,1 C 13,6 km/h (3 Bft)
28.09.2016 13:00 20,8 C 58 % 1028,5 hPa 0,0 l/m 5,1 km/h (1 Bft) O 12,2 C 20,8 C 12,6 km/h (3 Bft)
28.09.2016 14:00 21,6 C 51 % 1028,0 hPa 0,0 l/m 5,8 km/h (2 Bft) NO 10,9 C 21,5 C 13,7 km/h (3 Bft)
28.09.2016 15:00 21,7 C 49 % 1027,7 hPa 0,0 l/m 4,6 km/h (1 Bft) NO 10,4 C 21,7 C 13,2 km/h (3 Bft)
28.09.2016 16:00 21,4 C 53 % 1027,4 hPa 0,0 l/m 3,9 km/h (1 Bft) O-NO 11,3 C 21,4 C 10,5 km/h (2 Bft)
28.09.2016 17:00 19,8 C 60 % 1027,7 hPa 0,0 l/m 2,7 km/h (1 Bft) O 11,7 C 19,8 C 7,5 km/h (2 Bft)
28.09.2016 18:00 18,6 C 66 % 1027,7 hPa 0,0 l/m 1,6 km/h (1 Bft) O 12,0 C 18,6 C 3,8 km/h (1 Bft)
28.09.2016 19:00 15,9 C 78 % 1027,8 hPa 0,0 l/m 0,0 km/h (0 Bft) O-SO 11,9 C 15,9 C 0,1 km/h (0 Bft)
28.09.2016 20:00 13,6 C 86 % 1028,0 hPa 0,0 l/m 0,1 km/h (0 Bft) S-SW 11,2 C 13,6 C 1,1 km/h (0 Bft)
28.09.2016 21:00 12,0 C 90 % 1028,2 hPa 0,0 l/m 0,0 km/h (0 Bft) S-SW 10,4 C 12,0 C 0,4 km/h (0 Bft)
28.09.2016 22:00 10,8 C 92 % 1028,2 hPa 0,0 l/m 0,0 km/h (0 Bft) S-SW 9,6 C 10,8 C 0,3 km/h (0 Bft)
28.09.2016 23:00 10,0 C 93 % 1028,1 hPa 0,0 l/m 0,1 km/h (0 Bft) S-SW 9,0 C 10,0 C 0,5 km/h (0 Bft)
29.09.2016 00:00 9,5 C 94 % 1027,9 hPa 0,0 l/m 0,2 km/h (0 Bft) S-SW 8,5 C 9,5 C 1,1 km/h (0 Bft)
29.09.2016 01:00 9,5 C 93 % 1027,4 hPa 0,0 l/m 0,2 km/h (0 Bft) SO 8,5 C 9,5 C 1,7 km/h (1 Bft)
29.09.2016 02:00 8,6 C 93 % 1026,9 hPa 0,0 l/m 0,1 km/h (0 Bft) SO 7,6 C 8,6 C 0,7 km/h (0 Bft)
29.09.2016 03:00 7,7 C 95 % 1026,3 hPa 0,0 l/m 0,0 km/h (0 Bft) SO 6,9 C 7,7 C 0,3 km/h (0 Bft)
29.09.2016 04:00 7,2 C 95 % 1025,8 hPa 0,0 l/m 0,0 km/h (0 Bft) SO 6,5 C 7,2 C 0,4 km/h (0 Bft)
29.09.2016 05:00 7,0 C 96 % 1025,1 hPa 0,0 l/m 0,1 km/h (0 Bft) SO 6,4 C 7,0 C 0,6 km/h (0 Bft)
29.09.2016 06:00 7,0 C 96 % 1024,7 hPa 0,0 l/m 0,2 km/h (0 Bft) SO 6,3 C 7,0 C 0,9 km/h (0 Bft)
29.09.2016 07:00 6,8 C 95 % 1024,6 hPa 0,0 l/m 0,1 km/h (0 Bft) S 6,1 C 6,8 C 0,7 km/h (0 Bft)
29.09.2016 08:00 8,1 C 94 % 1024,3 hPa 0,0 l/m 0,4 km/h (0 Bft) S 7,2 C 8,1 C 1,9 km/h (1 Bft)
29.09.2016 09:00 13,1 C 79 % 1024,1 hPa 0,0 l/m 1,0 km/h (0 Bft) SW 9,6 C 13,1 C 3,1 km/h (1 Bft)
29.09.2016 10:00 17,6 C 65 % 1023,7 hPa 0,0 l/m 4,2 km/h (1 Bft) NO 10,8 C 17,6 C 10,5 km/h (2 Bft)
29.09.2016 11:00 20,1 C 55 % 1022,9 hPa 0,0 l/m 5,4 km/h (1 Bft) NO 10,7 C 20,1 C 12,4 km/h (2 Bft)
29.09.2016 12:00 21,1 C 50 % 1022,4 hPa 0,0 l/m 6,8 km/h (2 Bft) O-NO 10,2 C 20,7 C 15,4 km/h (3 Bft)
29.09.2016 13:00 22,5 C 47 % 1021,5 hPa 0,0 l/m 6,9 km/h (2 Bft) O 10,6 C 22,3 C 18,1 km/h (3 Bft)
29.09.2016 14:00 23,0 C 46 % 1020,5 hPa 0,0 l/m 8,5 km/h (2 Bft) O-NO 10,6 C 22,4 C 20,6 km/h (4 Bft)
29.09.2016 15:00 23,3 C 46 % 1019,5 hPa 0,0 l/m 8,0 km/h (2 Bft) O-NO 11,0 C 22,8 C 15,2 km/h (3 Bft)
29.09.2016 16:00 23,4 C 46 % 1019,1 hPa 0,0 l/m 6,3 km/h (2 Bft) NO 11,1 C 23,3 C 12,9 km/h (3 Bft)
29.09.2016 17:00 22,6 C 44 % 1018,5 hPa 0,0 l/m 6,1 km/h (2 Bft) O-NO 9,6 C 22,4 C 14,9 km/h (3 Bft)
29.09.2016 18:00 21,4 C 46 % 1018,2 hPa 0,0 l/m 6,3 km/h (2 Bft) O-NO 9,3 C 21,1 C 14,0 km/h (3 Bft)
29.09.2016 19:00 19,9 C 52 % 1017,9 hPa 0,0 l/m 5,9 km/h (2 Bft) O 9,9 C 19,8 C 14,7 km/h (3 Bft)
29.09.2016 20:00 19,3 C 53 % 1017,6 hPa 0,0 l/m 4,0 km/h (1 Bft) NO 9,5 C 19,2 C 11,8 km/h (2 Bft)
29.09.2016 21:00 18,1 C 60 % 1017,6 hPa 0,0 l/m 2,1 km/h (1 Bft) NO 10,1 C 18,1 C 7,0 km/h (2 Bft)
29.09.2016 22:00 17,1 C 64 % 1017,7 hPa 0,0 l/m 1,6 km/h (1 Bft) NO 10,4 C 17,1 C 5,3 km/h (1 Bft)
29.09.2016 23:00 14,9 C 74 % 1017,6 hPa 0,0 l/m 0,5 km/h (0 Bft) NO 10,3 C 14,9 C 1,7 km/h (1 Bft)
30.09.2016 00:00 13,6 C 80 % 1017,4 hPa 0,0 l/m 0,2 km/h (0 Bft) NO 10,2 C 13,6 C 1,2 km/h (1 Bft)
30.09.2016 01:00 12,3 C 85 % 1016,9 hPa 0,0 l/m 0,1 km/h (0 Bft) NO 9,8 C 12,3 C 1,1 km/h (0 Bft)
30.09.2016 02:00 11,4 C 86 % 1016,5 hPa 0,0 l/m 0,2 km/h (0 Bft) NO 9,1 C 11,4 C 1,1 km/h (0 Bft)
30.09.2016 03:00 10,8 C 85 % 1016,0 hPa 0,0 l/m 0,4 km/h (0 Bft) NO 8,4 C 10,8 C 2,0 km/h (1 Bft)
30.09.2016 04:00 10,8 C 81 % 1015,6 hPa 0,0 l/m 0,4 km/h (0 Bft) S-SW 7,7 C 10,8 C 1,7 km/h (1 Bft)
30.09.2016 05:00 10,0 C 84 % 1015,3 hPa 0,0 l/m 0,0 km/h (0 Bft) S-SW 7,4 C 10,0 C 0,8 km/h (0 Bft)
30.09.2016 06:00 9,6 C 85 % 1015,2 hPa 0,0 l/m 0,1 km/h (0 Bft) S-SW 7,3 C 9,6 C 1,1 km/h (1 Bft)
30.09.2016 07:00 10,1 C 84 % 1015,2 hPa 0,0 l/m 0,2 km/h (0 Bft) S-SW 7,5 C 10,1 C 1,5 km/h (1 Bft)
30.09.2016 08:00 11,6 C 83 % 1015,4 hPa 0,0 l/m 0,1 km/h (0 Bft) S-SW 8,8 C 11,6 C 1,2 km/h (1 Bft)
30.09.2016 09:00 16,6 C 68 % 1015,2 hPa 0,0 l/m 0,8 km/h (0 Bft) S-SW 10,6 C 16,6 C 3,1 km/h (1 Bft)
30.09.2016 10:00 19,6 C 48 % 1015,4 hPa 0,0 l/m 5,3 km/h (1 Bft) O-NO 8,2 C 19,4 C 13,0 km/h (3 Bft)
30.09.2016 11:00 21,1 C 43 % 1015,3 hPa 0,0 l/m 7,4 km/h (2 Bft) O-NO 8,1 C 20,7 C 17,6 km/h (3 Bft)
30.09.2016 12:00 21,3 C 44 % 1015,1 hPa 0,0 l/m 7,2 km/h (2 Bft) O-NO 8,6 C 20,8 C 15,5 km/h (3 Bft)
30.09.2016 13:00 20,7 C 47 % 1015,0 hPa 0,0 l/m 7,4 km/h (2 Bft) O-NO 8,8 C 20,3 C 18,2 km/h (3 Bft)
30.09.2016 14:00 20,9 C 47 % 1014,9 hPa 0,0 l/m 6,6 km/h (2 Bft) O 9,2 C 20,6 C 18,1 km/h (3 Bft)
30.09.2016 15:00 20,1 C 51 % 1014,6 hPa 0,0 l/m 4,4 km/h (1 Bft) O-NO 9,7 C 20,1 C 12,8 km/h (3 Bft)
30.09.2016 16:00 20,3 C 53 % 1014,2 hPa 0,0 l/m 5,0 km/h (1 Bft) NO 10,3 C 20,2 C 13,2 km/h (3 Bft)
30.09.2016 17:00 19,2 C 59 % 1014,0 hPa 0,0 l/m 1,2 km/h (1 Bft) O 11,0 C 19,2 C 3,9 km/h (1 Bft)
30.09.2016 18:00 18,3 C 66 % 1014,0 hPa 0,0 l/m 0,1 km/h (0 Bft) N 11,9 C 18,3 C 0,5 km/h (0 Bft)
30.09.2016 19:00 16,2 C 74 % 1013,9 hPa 0,0 l/m 0,1 km/h (0 Bft) N 11,6 C 16,2 C 0,1 km/h (0 Bft)
30.09.2016 20:00 14,0 C 82 % 1014,1 hPa 0,0 l/m 0,0 km/h (0 Bft) N 11,0 C 14,0 C 0,0 km/h (0 Bft)
30.09.2016 21:00 12,9 C 86 % 1014,3 hPa 0,0 l/m 0,1 km/h (0 Bft) N 10,6 C 12,9 C 0,1 km/h (0 Bft)
30.09.2016 22:00 12,2 C 89 % 1014,0 hPa 0,0 l/m 0,1 km/h (0 Bft) O 10,4 C 12,2 C 0,3 km/h (0 Bft)
30.09.2016 23:00 11,7 C 90 % 1013,4 hPa 0,0 l/m 0,0 km/h (0 Bft) O 10,2 C 11,7 C 0,0 km/h (0 Bft)
01.10.2016 00:00 12,0 C 91 % 1013,1 hPa 0,0 l/m 0,0 km/h (0 Bft) N 10,5 C 12,0 C 0,0 km/h (0 Bft)
01.10.2016 01:00 12,3 C 92 % 1012,7 hPa 0,5 l/m 0,3 km/h (0 Bft) N 11,0 C 12,3 C 0,8 km/h (0 Bft)
01.10.2016 02:00 11,9 C 95 % 1012,3 hPa 0,0 l/m 0,3 km/h (0 Bft) N 11,0 C 11,9 C 0,8 km/h (0 Bft)
01.10.2016 03:00 11,6 C 96 % 1011,5 hPa 0,0 l/m 0,0 km/h (0 Bft) N 10,9 C 11,6 C 0,1 km/h (0 Bft)
01.10.2016 04:00 11,4 C 96 % 1011,0 hPa 0,0 l/m 0,0 km/h (0 Bft) N 10,7 C 11,4 C 0,3 km/h (0 Bft)
01.10.2016 05:00 10,8 C 96 % 1010,6 hPa 0,0 l/m 0,0 km/h (0 Bft) N 10,2 C 10,8 C 0,3 km/h (0 Bft)
01.10.2016 06:00 10,5 C 96 % 1010,4 hPa 0,0 l/m 0,1 km/h (0 Bft) O-NO 9,9 C 10,5 C 0,4 km/h (0 Bft)
01.10.2016 07:00 10,4 C 96 % 1010,3 hPa 0,0 l/m 0,4 km/h (0 Bft) O 9,9 C 10,4 C 2,4 km/h (1 Bft)
01.10.2016 08:00 11,3 C 97 % 1010,3 hPa 0,0 l/m 0,5 km/h (0 Bft) N 10,8 C 11,3 C 2,4 km/h (1 Bft)
01.10.2016 09:00 13,7 C 90 % 1010,2 hPa 0,0 l/m 1,8 km/h (1 Bft) NO 12,1 C 13,7 C 4,9 km/h (1 Bft)
01.10.2016 10:00 15,5 C 80 % 1010,4 hPa 0,0 l/m 2,7 km/h (1 Bft) NO 12,1 C 15,5 C 7,5 km/h (2 Bft)
01.10.2016 11:00 16,2 C 77 % 1010,5 hPa 0,0 l/m 6,0 km/h (2 Bft) O-NO 12,1 C 15,9 C 15,0 km/h (3 Bft)
01.10.2016 12:00 16,3 C 76 % 1010,5 hPa 0,0 l/m 6,7 km/h (2 Bft) O-NO 12,0 C 15,9 C 15,7 km/h (3 Bft)
01.10.2016 13:00 16,5 C 73 % 1010,6 hPa 0,0 l/m 7,7 km/h (2 Bft) NO 11,6 C 15,9 C 19,4 km/h (3 Bft)
01.10.2016 14:00 16,0 C 76 % 1010,4 hPa 0,0 l/m 7,0 km/h (2 Bft) O-NO 11,7 C 15,5 C 20,4 km/h (4 Bft)
01.10.2016 15:00 15,6 C 75 % 1010,3 hPa 0,0 l/m 7,4 km/h (2 Bft) O-NO 11,1 C 14,9 C 18,9 km/h (3 Bft)
01.10.2016 16:00 15,1 C 76 % 1010,6 hPa 0,0 l/m 6,7 km/h (2 Bft) O 10,8 C 14,6 C 17,4 km/h (3 Bft)
01.10.2016 17:00 15,3 C 75 % 1010,6 hPa 0,0 l/m 6,4 km/h (2 Bft) O-NO 11,0 C 14,9 C 16,6 km/h (3 Bft)
01.10.2016 18:00 15,0 C 75 % 1010,7 hPa 0,0 l/m 5,2 km/h (1 Bft) O-NO 10,6 C 15,0 C 12,5 km/h (2 Bft)
01.10.2016 19:00 14,3 C 76 % 1011,3 hPa 0,0 l/m 5,0 km/h (1 Bft) O-NO 10,1 C 14,3 C 13,0 km/h (3 Bft)
01.10.2016 20:00 13,8 C 82 % 1012,1 hPa 1,0 l/m 5,6 km/h (2 Bft) O 10,8 C 13,7 C 15,6 km/h (3 Bft)
01.10.2016 21:00 11,5 C 90 % 1012,6 hPa 0,5 l/m 1,8 km/h (1 Bft) O 9,9 C 11,5 C 5,5 km/h (2 Bft)
01.10.2016 22:00 10,1 C 93 % 1012,5 hPa 0,0 l/m 0,3 km/h (0 Bft) O 9,1 C 10,1 C 1,9 km/h (1 Bft)
01.10.2016 23:00 10,1 C 96 % 1012,8 hPa 0,0 l/m 0,3 km/h (0 Bft) NO 9,5 C 10,1 C 1,5 km/h (1 Bft)
02.10.2016 00:00 9,9 C 96 % 1012,9 hPa 0,0 l/m 0,0 km/h (0 Bft) NO 9,2 C 9,9 C 0,6 km/h (0 Bft)
02.10.2016 01:00 9,3 C 96 % 1013,2 hPa 0,0 l/m 0,1 km/h (0 Bft) NO 8,6 C 9,3 C 0,9 km/h (0 Bft)
02.10.2016 02:00 8,3 C 96 % 1013,1 hPa 0,0 l/m 0,1 km/h (0 Bft) NO 7,7 C 8,3 C 1,1 km/h (0 Bft)
02.10.2016 03:00 7,8 C 96 % 1012,8 hPa 0,3 l/m 0,0 km/h (0 Bft) NO 7,3 C 7,8 C 0,5 km/h (0 Bft)
02.10.2016 04:00 8,4 C 97 % 1012,7 hPa 1,3 l/m 0,5 km/h (0 Bft) SO 7,9 C 8,4 C 2,0 km/h (1 Bft)
02.10.2016 05:00 9,7 C 98 % 1012,6 hPa 0,0 l/m 1,5 km/h (1 Bft) O-NO 9,3 C 9,7 C 3,7 km/h (1 Bft)
02.10.2016 06:00 10,6 C 98 % 1012,6 hPa 0,3 l/m 2,3 km/h (1 Bft) O 10,3 C 10,6 C 4,6 km/h (1 Bft)
02.10.2016 07:00 11,0 C 97 % 1012,9 hPa 1,0 l/m 1,3 km/h (1 Bft) O 10,5 C 11,0 C 4,4 km/h (1 Bft)
02.10.2016 08:00 10,7 C 96 % 1013,3 hPa 0,3 l/m 1,6 km/h (1 Bft) O-NO 10,1 C 10,7 C 5,2 km/h (1 Bft)
02.10.2016 09:00 10,7 C 95 % 1013,8 hPa 3,6 l/m 2,2 km/h (1 Bft) O-NO 9,9 C 10,7 C 5,3 km/h (1 Bft)
02.10.2016 10:00 10,3 C 94 % 1014,4 hPa 1,8 l/m 2,7 km/h (1 Bft) O-NO 9,4 C 10,3 C 7,6 km/h (2 Bft)
02.10.2016 11:00 10,4 C 92 % 1014,8 hPa 0,3 l/m 2,5 km/h (1 Bft) O 9,1 C 10,4 C 7,8 km/h (2 Bft)
02.10.2016 12:00 10,5 C 91 % 1015,1 hPa 0,0 l/m 1,5 km/h (1 Bft) O 9,0 C 10,5 C 4,4 km/h (1 Bft)
02.10.2016 13:00 10,7 C 90 % 1015,4 hPa 0,0 l/m 2,9 km/h (1 Bft) NO 9,2 C 10,7 C 7,2 km/h (2 Bft)
02.10.2016 14:00 12,8 C 83 % 1015,2 hPa 0,0 l/m 4,6 km/h (1 Bft) O-NO 9,9 C 12,8 C 12,5 km/h (2 Bft)
02.10.2016 15:00 14,4 C 66 % 1014,9 hPa 0,3 l/m 5,6 km/h (2 Bft) O 8,0 C 14,2 C 15,3 km/h (3 Bft)
02.10.2016 16:00 14,9 C 54 % 1015,2 hPa 0,0 l/m 5,3 km/h (1 Bft) NO 5,7 C 14,9 C 14,2 km/h (3 Bft)
02.10.2016 17:00 14,5 C 54 % 1015,6 hPa 0,0 l/m 3,2 km/h (1 Bft) O 5,2 C 14,5 C 8,9 km/h (2 Bft)
02.10.2016 18:00 12,5 C 61 % 1016,2 hPa 0,0 l/m 1,9 km/h (1 Bft) O-NO 5,2 C 12,5 C 5,3 km/h (1 Bft)
02.10.2016 19:00 10,8 C 66 % 1017,3 hPa 0,0 l/m 2,1 km/h (1 Bft) O 4,7 C 10,8 C 7,0 km/h (2 Bft)
02.10.2016 20:00 10,5 C 69 % 1018,3 hPa 0,0 l/m 2,0 km/h (1 Bft) O-NO 4,9 C 10,5 C 5,6 km/h (2 Bft)
02.10.2016 21:00 10,0 C 73 % 1019,1 hPa 0,0 l/m 2,8 km/h (1 Bft) O-NO 5,5 C 10,0 C 8,8 km/h (2 Bft)
02.10.2016 22:00 9,6 C 77 % 1019,7 hPa 0,0 l/m 3,8 km/h (1 Bft) O 5,8 C 9,6 C 11,3 km/h (2 Bft)
02.10.2016 23:00 9,3 C 81 % 1020,4 hPa 0,0 l/m 3,0 km/h (1 Bft) O 6,1 C 9,3 C 8,8 km/h (2 Bft)
Min-Datum _ 28.09.16 30.09.16 01.10.16 - 02.10.16 - 02.10.16 28.09.16 02.10.16
_ Min-Zeit 05:15 11:20 09:05 - 23:57 - 19:45 05:15 05:05
Minimum _ 6,4 C 42 % 1010,1 hPa - 0,0 km/h (0 Bft) - 4,4 C 6,4 C 0,0 km/h (0 Bft)
Max-Datum _ 29.09.16 02.10.16 28.09.16 02.10.16 30.09.16 - 26.09.16 29.09.16 01.10.16
_ Max-Zeit 16:14 06:00 10:55 09:50 11:57 - 17:00 16:15 14:45
Maximum _ 23,7 C 98 % 1029,6 hPa 3,6 l/m 12,9 km/h
O-NO (3 Bft)
- 14,1 C 23,7 C 32,2 km/h
NO (5 Bft)
Durchschnitt _ 13,9 C 81 % 1019,5 hPa #18,5 l/m 2,0 km/h (1 Bft) N 10,2 C 13,8 C 5,4 km/h (2 Bft)